createdAt,value
2024-01-05T00:00:09.704Z,79.17
2024-01-05T00:03:12.801Z,78.94
2024-01-05T00:06:15.761Z,78.85
2024-01-05T00:09:19.180Z,78.56
2024-01-05T00:12:22.483Z,78.46
2024-01-05T00:15:26.955Z,78.29
2024-01-05T00:18:29.872Z,78.07
2024-01-05T00:21:32.733Z,78.70
2024-01-05T00:24:38.233Z,78.34
2024-01-05T00:27:41.107Z,77.76
2024-01-05T00:30:45.617Z,78.25
2024-01-05T00:33:48.867Z,78.47
2024-01-05T00:36:51.923Z,78.18
2024-01-05T00:39:54.997Z,78.11
2024-01-05T00:42:57.857Z,78.57
2024-01-05T00:46:02.083Z,77.46
2024-01-05T00:49:04.837Z,77.64
2024-01-05T00:52:07.882Z,77.74
2024-01-05T00:55:10.881Z,77.40
2024-01-05T00:58:13.520Z,77.33
2024-01-05T01:01:17.751Z,77.64
2024-01-05T01:04:20.650Z,77.76
2024-01-05T01:07:23.462Z,77.71
2024-01-05T01:10:26.074Z,78.32
2024-01-05T01:13:28.880Z,78.60
2024-01-05T01:16:33.689Z,78.77
2024-01-05T01:19:36.430Z,78.98
2024-01-05T01:22:39.136Z,78.68
2024-01-05T01:25:42.085Z,78.95
2024-01-05T01:28:44.746Z,79.08
2024-01-05T01:31:48.780Z,79.33
2024-01-05T01:34:51.478Z,78.99
2024-01-05T01:37:54.169Z,78.99
2024-01-05T01:40:57.963Z,79.48
2024-01-05T01:44:01.588Z,79.16
2024-01-05T01:47:06.410Z,79.47
2024-01-05T01:50:10.035Z,78.90
2024-01-05T01:53:14.733Z,78.40
2024-01-05T01:56:17.598Z,78.38
2024-01-05T01:59:20.354Z,77.87
2024-01-05T02:02:25.162Z,77.44
2024-01-05T02:05:28.015Z,77.53
2024-01-05T02:08:30.877Z,77.49
2024-01-05T02:11:33.556Z,76.50
2024-01-05T02:14:36.370Z,76.83
2024-01-05T02:17:41.813Z,76.18
2024-01-05T02:20:47.872Z,75.71
2024-01-05T02:23:52.405Z,75.70
2024-01-05T02:26:55.287Z,75.90
2024-01-05T02:29:58.234Z,75.66
2024-01-05T02:33:01.332Z,75.24
2024-01-05T02:36:07.750Z,75.42
2024-01-05T02:39:21.592Z,75.67
2024-01-05T02:42:32.223Z,75.83
2024-01-05T02:45:45.221Z,75.45
2024-01-05T02:49:04.931Z,75.64
2024-01-05T02:52:21.342Z,75.77
2024-01-05T02:55:38.208Z,75.68
2024-01-05T02:58:43.278Z,75.77
2024-01-05T03:02:15.003Z,76.34
2024-01-05T03:05:26.976Z,75.83
2024-01-05T03:08:35.325Z,75.89
2024-01-05T03:11:44.909Z,75.81
2024-01-05T03:14:53.148Z,75.77
2024-01-05T03:18:01.898Z,75.57
2024-01-05T03:21:09.081Z,73.55
2024-01-05T03:24:16.226Z,73.44
2024-01-05T03:27:25.655Z,73.84
2024-01-05T03:30:34.923Z,74.02
2024-01-05T03:33:44.487Z,74.57
2024-01-05T03:37:07.175Z,75.39
2024-01-05T03:40:25.371Z,72.83
2024-01-05T03:43:38.101Z,73.78
2024-01-05T03:46:51.494Z,71.31
2024-01-05T03:50:20.583Z,70.54
2024-01-05T03:53:35.276Z,69.40
2024-01-05T03:57:00.381Z,70.01
2024-01-05T04:00:38.252Z,68.54
2024-01-05T04:03:52.905Z,67.61
2024-01-05T04:07:19.316Z,67.16
2024-01-05T04:10:25.427Z,67.06
2024-01-05T04:13:36.150Z,67.12
2024-01-05T04:16:55.701Z,67.75
2024-01-05T04:20:08.859Z,68.95
2024-01-05T04:23:37.763Z,67.37
2024-01-05T04:26:45.884Z,67.69
2024-01-05T04:33:16.439Z,67.19
2024-01-05T04:36:28.651Z,67.59
2024-01-05T04:39:49.706Z,66.40
2024-01-05T04:43:05.473Z,67.22
2024-01-05T04:46:17.096Z,66.75
2024-01-05T04:49:30.522Z,67.34
2024-01-05T04:56:58.437Z,67.48
2024-01-05T05:00:31.028Z,67.57
2024-01-05T05:03:36.704Z,68.37
2024-01-05T05:07:32.054Z,69.24
2024-01-05T05:11:23.034Z,68.54
2024-01-05T05:18:30.210Z,67.92
2024-01-05T05:21:37.622Z,68.09
2024-01-05T05:24:58.284Z,68.51
2024-01-05T05:28:19.780Z,68.51
2024-01-05T05:31:37.368Z,68.57
2024-01-05T05:34:51.101Z,68.81
2024-01-05T05:38:16.730Z,69.58
2024-01-05T05:41:34.835Z,69.66
2024-01-05T05:44:50.438Z,69.93
2024-01-05T05:48:02.328Z,69.85
2024-01-05T05:51:25.095Z,69.45
2024-01-05T05:54:34.534Z,69.40
2024-01-05T06:01:23.680Z,68.74
2024-01-05T06:04:35.852Z,68.90
2024-01-05T06:07:51.933Z,69.08
2024-01-05T06:11:24.231Z,70.06
2024-01-05T06:14:42.296Z,68.09
2024-01-05T06:18:06.504Z,67.86
2024-01-05T06:21:19.404Z,65.75
2024-01-05T06:24:31.023Z,65.42
2024-01-05T06:27:39.748Z,65.68
2024-01-05T06:30:48.217Z,64.96
2024-01-05T06:37:22.951Z,65.07
2024-01-05T06:40:35.761Z,65.24
2024-01-05T06:43:45.874Z,66.57
2024-01-05T06:47:03.614Z,65.70
2024-01-05T06:50:15.905Z,66.77
2024-01-05T06:53:20.594Z,67.72
2024-01-05T06:56:41.096Z,68.32
2024-01-05T07:00:06.988Z,68.91
2024-01-05T07:03:28.863Z,68.29
2024-01-05T07:06:40.112Z,68.93
2024-01-05T07:09:58.126Z,69.80
2024-01-05T07:13:08.625Z,69.50
2024-01-05T07:16:21.974Z,70.63
2024-01-05T07:19:29.014Z,70.15
2024-01-05T07:22:36.911Z,70.15
2024-01-05T07:25:45.901Z,68.99
2024-01-05T07:29:10.102Z,69.06
2024-01-05T07:32:44.946Z,69.66
2024-01-05T07:36:11.070Z,70.10
2024-01-05T08:01:28.946Z,72.11
2024-01-05T08:22:17.551Z,73.49
2024-01-05T08:25:24.154Z,73.34
2024-01-05T08:28:27.989Z,73.59
2024-01-05T08:31:31.615Z,73.54
2024-01-05T08:34:35.205Z,71.59
2024-01-05T08:37:39.478Z,72.88
2024-01-05T08:40:45.823Z,73.69
2024-01-05T08:43:48.762Z,74.08
2024-01-05T08:46:51.759Z,73.36
2024-01-05T08:49:55.282Z,72.55
2024-01-05T08:52:58.383Z,72.02
2024-01-05T08:56:02.663Z,71.72
2024-01-05T08:59:06.928Z,71.67
2024-01-05T09:02:10.378Z,71.69
2024-01-05T09:05:14.024Z,71.27
2024-01-05T09:08:17.005Z,70.61
2024-01-05T09:11:21.507Z,70.86
2024-01-05T09:14:24.661Z,70.64
2024-01-05T09:17:27.859Z,70.96
2024-01-05T09:20:30.978Z,71.09
2024-01-05T09:23:34.013Z,71.04
2024-01-05T09:26:38.260Z,71.21
2024-01-05T09:29:41.556Z,71.44
2024-01-05T09:32:44.348Z,72.30
2024-01-05T09:35:47.200Z,72.65
2024-01-05T09:38:50.219Z,71.00
2024-01-05T09:41:54.367Z,70.03
2024-01-05T09:44:57.748Z,69.99
2024-01-05T09:48:03.547Z,70.18
2024-01-05T09:51:08.878Z,71.44
2024-01-05T09:54:12.337Z,71.86
2024-01-05T09:57:19.094Z,73.37
2024-01-05T10:00:24.562Z,72.56
2024-01-05T10:03:28.491Z,73.31
2024-01-05T10:06:32.545Z,74.32
2024-01-05T10:09:50.912Z,74.18
2024-01-05T10:12:55.233Z,73.42
2024-01-05T10:16:01.023Z,72.86
2024-01-05T10:19:12.942Z,72.17
2024-01-05T10:22:16.891Z,71.28
2024-01-05T10:25:23.225Z,71.09
2024-01-05T10:28:31.739Z,70.64
2024-01-05T10:31:34.659Z,71.13
2024-01-05T10:34:37.816Z,71.08
2024-01-05T10:37:40.646Z,71.11
2024-01-05T10:40:43.375Z,70.55
2024-01-05T10:43:48.997Z,69.80
2024-01-05T10:46:53.277Z,70.01
2024-01-05T10:49:58.705Z,69.99
2024-01-05T10:53:02.755Z,69.60
2024-01-05T10:56:09.000Z,69.55
2024-01-05T10:59:13.106Z,69.92
2024-01-05T11:02:23.313Z,69.72
2024-01-05T11:05:27.882Z,70.02
2024-01-05T11:08:44.092Z,69.28
2024-01-05T11:12:01.710Z,69.48
2024-01-05T11:15:24.663Z,69.07
2024-01-05T11:18:57.095Z,69.29
2024-01-05T11:22:04.728Z,70.24
2024-01-05T11:25:08.088Z,70.26
2024-01-05T11:28:34.160Z,70.06
2024-01-05T11:31:55.078Z,70.42
2024-01-05T11:34:58.074Z,69.48
2024-01-05T11:38:00.884Z,70.39
2024-01-05T11:41:17.466Z,70.43
2024-01-05T11:44:33.781Z,69.97
2024-01-05T11:47:42.906Z,69.20
2024-01-05T11:50:45.895Z,69.32
2024-01-05T11:53:49.652Z,69.59
2024-01-05T11:56:56.148Z,70.04
2024-01-05T11:59:58.937Z,69.73
2024-01-05T12:03:04.085Z,69.47
2024-01-05T12:06:11.005Z,70.49
2024-01-05T12:09:14.241Z,69.34
2024-01-05T12:12:18.348Z,68.79
2024-01-05T12:15:21.749Z,69.51
2024-01-05T12:18:34.590Z,69.05
2024-01-05T12:21:41.230Z,69.86
2024-01-05T12:24:46.921Z,70.42
2024-01-05T12:27:50.114Z,70.20
2024-01-05T12:30:53.289Z,70.38
2024-01-05T12:33:58.560Z,71.57
2024-01-05T12:37:08.596Z,71.91
2024-01-05T12:40:12.774Z,71.44
2024-01-05T12:43:17.561Z,72.09
2024-01-05T12:46:21.411Z,71.96
2024-01-05T12:49:27.114Z,72.12
2024-01-05T12:52:37.415Z,72.33
2024-01-05T12:55:40.298Z,72.74
2024-01-05T12:58:44.174Z,72.29
2024-01-05T13:01:46.929Z,72.68
2024-01-05T13:04:51.095Z,71.15
2024-01-05T13:07:54.656Z,70.84
2024-01-05T13:10:57.392Z,71.71
2024-01-05T13:14:00.204Z,70.60
2024-01-05T13:17:03.344Z,70.44
2024-01-05T13:20:10.104Z,70.43
2024-01-05T13:23:13.686Z,70.93
2024-01-05T13:26:17.482Z,70.90
2024-01-05T13:29:20.206Z,71.90
2024-01-05T13:32:23.152Z,73.47
2024-01-05T13:35:27.330Z,73.42
2024-01-05T13:38:30.057Z,72.98
2024-01-05T13:41:32.780Z,72.68
2024-01-05T13:44:36.380Z,71.64
2024-01-05T13:47:39.394Z,71.27
2024-01-05T13:50:43.619Z,72.70
2024-01-05T13:53:46.437Z,73.53
2024-01-05T13:56:49.310Z,73.51
2024-01-05T13:59:52.086Z,73.80
2024-01-05T14:02:54.950Z,73.88
2024-01-05T14:06:04.999Z,74.21
2024-01-05T14:09:07.926Z,74.51
2024-01-05T14:12:11.079Z,74.81
2024-01-05T14:15:15.456Z,76.12
2024-01-05T14:18:18.426Z,76.24
2024-01-05T14:21:27.542Z,76.88
2024-01-05T14:24:30.508Z,77.42
2024-01-05T14:27:33.270Z,75.89
2024-01-05T14:30:36.288Z,76.30
2024-01-05T14:33:39.450Z,76.70
2024-01-05T14:36:43.832Z,76.59
2024-01-05T14:39:46.690Z,77.31
2024-01-05T14:42:49.490Z,77.16
2024-01-05T14:45:52.345Z,77.52
2024-01-05T14:48:55.245Z,77.96
2024-01-05T14:52:01.248Z,78.14
2024-01-05T14:55:04.657Z,79.06
2024-01-05T14:58:08.091Z,79.34
2024-01-05T15:01:11.239Z,78.57
2024-01-05T15:04:14.460Z,79.22
2024-01-05T15:07:19.037Z,78.85
2024-01-05T15:10:21.827Z,78.99
2024-01-05T15:13:24.597Z,78.74
2024-01-05T15:16:28.058Z,78.72
2024-01-05T15:19:31.077Z,79.31
2024-01-05T15:22:35.250Z,79.25
2024-01-05T15:25:38.082Z,79.95
2024-01-05T15:28:41.717Z,80.83
2024-01-05T15:31:44.586Z,81.03
2024-01-05T15:34:47.568Z,80.79
2024-01-05T15:37:51.667Z,81.38
2024-01-05T15:40:54.397Z,81.01
2024-01-05T15:43:57.661Z,81.30
2024-01-05T15:47:00.714Z,81.58
2024-01-05T15:50:04.349Z,81.48
2024-01-05T15:53:08.526Z,81.82
2024-01-05T15:56:11.645Z,81.80
2024-01-05T15:59:14.723Z,80.91
2024-01-05T16:02:17.526Z,81.01
2024-01-05T16:05:20.688Z,80.91
2024-01-05T16:08:25.311Z,80.18
2024-01-05T16:11:31.742Z,80.20
2024-01-05T16:14:34.764Z,80.36
2024-01-05T16:17:37.806Z,79.96
2024-01-05T16:20:42.391Z,80.63
2024-01-05T16:23:46.717Z,80.79
2024-01-05T16:26:50.419Z,81.17
2024-01-05T16:29:53.244Z,81.56
2024-01-05T16:32:56.179Z,81.62
2024-01-05T16:35:59.104Z,81.74
2024-01-05T16:39:04.053Z,82.18
2024-01-05T16:42:07.112Z,81.70
2024-01-05T16:45:13.055Z,82.03
2024-01-05T16:48:16.154Z,81.83
2024-01-05T16:51:19.027Z,81.42
2024-01-05T16:54:23.346Z,80.60
2024-01-05T16:57:26.290Z,81.20
2024-01-05T17:00:29.618Z,81.56
2024-01-05T17:03:32.984Z,81.60
2024-01-05T17:06:37.111Z,81.78
2024-01-05T17:09:42.304Z,81.64
2024-01-05T17:12:45.310Z,81.50
2024-01-05T17:15:48.169Z,82.16
2024-01-05T17:18:53.085Z,82.18
2024-01-05T17:21:56.205Z,82.92
2024-01-05T17:25:00.795Z,82.71
2024-01-05T17:28:05.060Z,83.33
2024-01-05T17:31:08.098Z,82.87
2024-01-05T17:34:11.945Z,82.76
2024-01-05T17:37:17.365Z,82.83
2024-01-05T17:40:22.938Z,82.58
2024-01-05T17:43:25.747Z,82.58
2024-01-05T17:46:28.744Z,82.46
2024-01-05T17:49:31.699Z,82.11
2024-01-05T17:52:34.644Z,82.00
2024-01-05T17:55:38.805Z,81.08
2024-01-05T17:58:41.692Z,80.46
2024-01-05T18:01:45.129Z,80.44
2024-01-05T18:04:48.061Z,80.78
2024-01-05T18:07:54.194Z,80.81
2024-01-05T18:10:58.705Z,81.55
2024-01-05T18:14:01.917Z,82.06
2024-01-05T18:17:05.168Z,81.94
2024-01-05T18:20:10.128Z,82.62
2024-01-05T18:23:16.748Z,83.20
2024-01-05T18:26:23.122Z,83.32
2024-01-05T18:29:29.407Z,82.49
2024-01-05T18:32:33.113Z,82.20
2024-01-05T18:35:35.982Z,82.24
2024-01-05T18:38:39.160Z,83.14
2024-01-05T18:41:43.353Z,83.51
2024-01-05T18:44:46.267Z,83.93
2024-01-05T18:47:49.188Z,83.64
2024-01-05T18:50:52.342Z,83.62
2024-01-05T18:53:55.177Z,84.07
2024-01-05T18:57:00.805Z,83.03
2024-01-05T19:00:03.684Z,83.80
2024-01-05T19:03:06.857Z,82.88
2024-01-05T19:06:09.816Z,82.99
2024-01-05T19:09:12.920Z,83.55
2024-01-05T19:12:17.308Z,83.09
2024-01-05T19:15:20.125Z,83.62
2024-01-05T19:18:23.145Z,84.06
2024-01-05T19:21:26.132Z,84.22
2024-01-05T19:24:29.361Z,84.06
2024-01-05T19:27:33.807Z,84.93
2024-01-05T19:30:37.131Z,85.24
2024-01-05T19:33:40.217Z,85.43
2024-01-05T19:36:46.317Z,85.48
2024-01-05T19:39:49.701Z,86.24
2024-01-05T19:42:54.159Z,86.71
2024-01-05T19:45:57.095Z,85.68
2024-01-05T19:49:00.999Z,85.12
2024-01-05T19:52:04.817Z,84.21
2024-01-05T19:55:08.684Z,83.24
2024-01-05T19:58:13.509Z,83.43
2024-01-05T20:01:17.803Z,83.23
2024-01-05T20:04:20.810Z,83.07
2024-01-05T20:07:25.676Z,83.43
2024-01-05T20:10:29.708Z,82.99
2024-01-05T20:13:33.934Z,83.74
2024-01-05T20:16:36.934Z,83.50
2024-01-05T20:19:40.011Z,83.09
2024-01-05T20:22:42.999Z,83.92
2024-01-05T20:25:45.737Z,84.39
2024-01-05T20:28:51.027Z,84.93
2024-01-05T20:31:55.355Z,85.34
2024-01-05T20:34:58.640Z,84.49
2024-01-05T20:38:01.423Z,84.38
2024-01-05T20:41:05.031Z,84.59
2024-01-05T20:44:12.746Z,84.22
2024-01-05T20:47:17.543Z,84.41
2024-01-05T20:50:20.159Z,84.63
2024-01-05T20:53:23.173Z,83.94
2024-01-05T20:56:25.796Z,84.11
2024-01-05T20:59:29.799Z,83.17
2024-01-05T21:02:32.583Z,83.78
2024-01-05T21:05:36.129Z,83.68
2024-01-05T21:08:38.810Z,83.93
2024-01-05T21:11:41.415Z,84.65
2024-01-05T21:14:45.388Z,84.48
2024-01-05T21:17:49.520Z,84.58
2024-01-05T21:20:52.201Z,84.21
2024-01-05T21:23:54.952Z,84.11
2024-01-05T21:26:57.613Z,84.69
2024-01-05T21:30:01.644Z,84.52
2024-01-05T21:33:05.523Z,84.15
2024-01-05T21:36:12.197Z,84.87
2024-01-05T21:39:17.637Z,85.26
2024-01-05T21:42:20.698Z,84.36
2024-01-05T21:45:24.905Z,84.36
2024-01-05T21:48:27.776Z,84.11
2024-01-05T21:51:30.641Z,84.23
2024-01-05T21:54:33.484Z,84.22
2024-01-05T21:57:36.507Z,84.03
2024-01-05T22:00:40.674Z,84.44
2024-01-05T22:03:43.494Z,84.74
2024-01-05T22:06:46.498Z,84.11
2024-01-05T22:09:49.386Z,84.65
2024-01-05T22:12:54.573Z,85.64
2024-01-05T22:15:58.914Z,85.43
2024-01-05T22:19:01.968Z,85.75
2024-01-05T22:22:04.891Z,84.57
2024-01-05T22:25:08.596Z,85.85
2024-01-05T22:28:11.278Z,85.92
2024-01-05T22:31:15.612Z,85.53
2024-01-05T22:34:18.365Z,85.83
2024-01-05T22:37:21.551Z,85.70
2024-01-05T22:40:26.621Z,85.76
2024-01-05T22:43:29.337Z,85.25
2024-01-05T22:46:33.296Z,84.54
2024-01-05T22:49:40.104Z,85.23
2024-01-05T22:52:42.807Z,84.69
2024-01-05T22:55:45.497Z,84.45
2024-01-05T22:58:48.378Z,85.06
2024-01-05T23:01:55.824Z,85.37
2024-01-05T23:04:58.993Z,85.46
2024-01-05T23:08:01.807Z,85.39
2024-01-05T23:11:06.211Z,85.76
2024-01-05T23:14:08.887Z,85.33
2024-01-05T23:17:12.931Z,85.87
2024-01-05T23:20:16.333Z,85.51
2024-01-05T23:23:19.139Z,85.88
2024-01-05T23:26:21.782Z,85.95
2024-01-05T23:29:24.981Z,85.91
2024-01-05T23:32:28.995Z,86.39
2024-01-05T23:35:31.703Z,86.30
2024-01-05T23:38:34.374Z,85.96
2024-01-05T23:41:37.846Z,85.55
2024-01-05T23:44:40.541Z,85.54
2024-01-05T23:47:44.533Z,86.08
2024-01-05T23:50:47.336Z,86.10
2024-01-05T23:53:49.943Z,85.43
2024-01-05T23:56:52.552Z,86.27
2024-01-05T23:59:55.250Z,85.36
